Time;durP1;ratioP1;P1;durP2;ratioP2;P2;SDS_P1;SDS_P2;PMS_P1;PMS_P2;Temp;Humidity;BMP_temperature;BMP_pressure;BME280_temperature;BME280_humidity;BME280_pressure;Samples;Min_cycle;Max_cycle;Signal;HPM_P1;HPM_P2
2024/02/21 00:00:51;;;;;;;26.50;7.25;;;7.60;99.90;;;;;;5025028;28;20190;-89
2024/02/21 00:03:17;;;;;;;28.25;7.07;;;7.50;99.90;;;;;;5034856;28;20208;-89
2024/02/21 00:05:43;;;;;;;20.80;6.87;;;7.60;99.90;;;;;;5031080;28;20213;-89
2024/02/21 00:08:08;;;;;;;21.27;7.17;;;7.50;99.90;;;;;;5020595;28;20289;-88
2024/02/21 00:10:36;;;;;;;21.63;7.10;;;7.50;99.90;;;;;;5024315;28;20273;-88
2024/02/21 00:13:02;;;;;;;26.20;7.40;;;7.50;99.90;;;;;;5021290;28;20325;-88
2024/02/21 00:15:28;;;;;;;26.58;8.27;;;7.50;99.90;;;;;;5021202;28;20274;-89
2024/02/21 00:17:53;;;;;;;17.70;6.93;;;7.60;99.90;;;;;;5032650;28;20522;-88
2024/02/21 00:20:20;;;;;;;21.23;7.93;;;7.60;99.90;;;;;;5018767;28;20598;-87
2024/02/21 00:22:45;;;;;;;26.10;7.63;;;7.60;99.90;;;;;;5022512;28;20221;-87
2024/02/21 00:25:11;;;;;;;27.88;7.72;;;7.60;99.90;;;;;;5031981;28;20179;-88
2024/02/21 00:27:37;;;;;;;24.33;8.00;;;7.60;99.90;;;;;;5033364;28;20179;-88
2024/02/21 00:30:04;;;;;;;24.43;7.80;;;7.60;99.90;;;;;;5033171;28;20277;-88
2024/02/21 00:32:29;;;;;;;22.50;7.90;;;7.60;99.90;;;;;;5024683;28;20199;-88
2024/02/21 00:34:55;;;;;;;22.73;7.50;;;7.60;99.90;;;;;;5025292;28;20194;-86
2024/02/21 00:37:21;;;;;;;27.77;8.27;;;7.60;99.90;;;;;;5017511;28;20191;-88
2024/02/21 00:39:47;;;;;;;26.80;9.33;;;7.60;99.90;;;;;;5021647;28;20512;-88
2024/02/21 00:42:12;;;;;;;22.17;8.40;;;7.60;99.90;;;;;;5032969;28;20252;-87
2024/02/21 00:44:38;;;;;;;23.63;8.13;;;7.60;99.90;;;;;;5023640;28;20190;-88
2024/02/21 00:47:04;;;;;;;18.83;8.17;;;7.60;99.90;;;;;;5031197;28;20198;-87
2024/02/21 00:49:30;;;;;;;22.50;8.53;;;7.60;99.90;;;;;;5016297;28;20190;-87
2024/02/21 00:51:55;;;;;;;20.77;7.80;;;7.70;99.90;;;;;;5013557;28;20187;-87
2024/02/21 00:54:22;;;;;;;23.07;8.73;;;7.70;99.90;;;;;;5020735;28;20640;-87
2024/02/21 00:56:48;;;;;;;25.27;9.27;;;7.70;99.90;;;;;;5023821;28;20338;-88
2024/02/21 00:59:14;;;;;;;34.43;10.07;;;7.70;99.90;;;;;;5023620;28;20249;-87
2024/02/21 01:01:42;;;;;;;19.92;9.27;;;7.70;99.90;;;;;;5022944;28;20195;-88
2024/02/21 01:04:09;;;;;;;25.23;9.30;;;7.70;99.90;;;;;;5013355;28;20621;-88
2024/02/21 01:06:35;;;;;;;25.00;8.97;;;7.80;99.90;;;;;;5025113;28;20218;-86
2024/02/21 01:09:00;;;;;;;24.33;10.10;;;7.80;99.90;;;;;;5017543;28;20267;-88
2024/02/21 01:11:26;;;;;;;27.50;10.13;;;7.80;99.90;;;;;;5016791;28;20194;-86
2024/02/21 01:13:52;;;;;;;22.27;9.93;;;7.80;99.90;;;;;;5021465;28;20254;-87
2024/02/21 01:16:17;;;;;;;23.53;10.47;;;7.80;99.90;;;;;;5020923;28;20571;-88
2024/02/21 01:18:43;;;;;;;28.67;11.30;;;7.80;99.90;;;;;;5021297;28;20694;-87
2024/02/21 01:21:09;;;;;;;23.90;10.57;;;7.90;99.90;;;;;;5014277;28;20249;-89
2024/02/21 01:23:36;;;;;;;21.10;10.43;;;7.80;99.90;;;;;;5015030;28;20270;-87
2024/02/21 01:26:03;;;;;;;23.70;10.67;;;7.90;99.90;;;;;;5026874;28;20245;-87
2024/02/21 01:28:30;;;;;;;27.47;11.73;;;7.90;99.90;;;;;;5021191;28;20242;-86
2024/02/21 01:30:57;;;;;;;25.60;11.03;;;7.80;99.90;;;;;;5016311;28;20235;-87
2024/02/21 01:33:22;;;;;;;27.37;11.97;;;7.80;99.90;;;;;;5023064;28;20191;-86
2024/02/21 01:35:49;;;;;;;21.33;11.00;;;7.80;99.90;;;;;;5023489;28;21588;-86
2024/02/21 01:38:15;;;;;;;24.77;11.47;;;7.90;99.90;;;;;;5033895;28;20520;-86
2024/02/21 01:40:41;;;;;;;25.95;11.88;;;7.90;99.90;;;;;;5024339;28;20194;-87
2024/02/21 01:43:19;;;;;;;27.10;11.70;;;7.80;99.90;;;;;;5027217;28;20645;-87
2024/02/21 01:45:57;;;;;;;30.23;11.73;;;7.90;99.90;;;;;;5030205;28;20198;-86
2024/02/21 01:48:24;;;;;;;27.83;13.10;;;7.80;99.90;;;;;;5020716;28;20202;-87
2024/02/21 01:50:51;;;;;;;30.63;12.37;;;7.90;99.90;;;;;;5021104;28;20187;-87
2024/02/21 01:53:21;;;;;;;27.07;12.70;;;7.90;99.90;;;;;;5012731;28;20187;-87
2024/02/21 01:55:47;;;;;;;29.60;12.23;;;7.80;99.90;;;;;;5018002;28;20183;-87
2024/02/21 01:58:17;;;;;;;28.55;13.02;;;7.80;99.90;;;;;;5017881;28;20237;-88
2024/02/21 02:00:45;;;;;;;32.25;13.00;;;7.90;99.90;;;;;;5016210;28;20201;-87
2024/02/21 02:03:16;;;;;;;26.57;13.23;;;7.90;99.90;;;;;;5028742;28;20280;-88
2024/02/21 02:05:46;;;;;;;30.87;13.33;;;7.90;99.90;;;;;;5031265;28;20282;-88
2024/02/21 02:08:16;;;;;;;31.42;12.65;;;7.90;99.90;;;;;;5029851;28;20253;-86
2024/02/21 02:10:43;;;;;;;29.70;13.87;;;7.90;99.90;;;;;;5035732;28;20195;-87
2024/02/21 02:13:09;;;;;;;27.93;12.30;;;7.90;99.90;;;;;;5035285;28;20196;-86
2024/02/21 02:15:46;;;;;;;28.47;13.57;;;7.90;99.90;;;;;;5033790;28;20245;-87
2024/02/21 02:18:13;;;;;;;34.65;14.77;;;7.90;99.90;;;;;;5032904;28;20193;-87
2024/02/21 02:20:39;;;;;;;28.88;13.95;;;7.90;99.90;;;;;;5018088;28;20188;-87
2024/02/21 02:23:29;;;;;;;31.83;14.13;;;7.90;99.90;;;;;;5024220;28;20218;-86
2024/02/21 02:25:55;;;;;;;28.67;13.45;;;7.90;99.90;;;;;;5019343;28;20194;-86
2024/02/21 02:28:22;;;;;;;31.67;14.33;;;7.90;99.90;;;;;;5019980;28;20194;-86
2024/02/21 02:30:48;;;;;;;28.05;13.15;;;7.90;99.90;;;;;;5029608;28;20289;-86
2024/02/21 02:33:14;;;;;;;26.10;13.10;;;8.00;99.90;;;;;;5030530;28;20191;-87
2024/02/21 02:35:41;;;;;;;34.30;13.40;;;7.90;99.90;;;;;;5016263;28;20202;-87
2024/02/21 02:38:06;;;;;;;35.23;13.93;;;7.90;99.90;;;;;;5020370;28;20510;-87
2024/02/21 02:40:37;;;;;;;30.20;12.27;;;8.00;99.90;;;;;;5015297;28;20198;-87
2024/02/21 02:43:03;;;;;;;31.47;13.27;;;8.00;99.90;;;;;;5023716;28;20233;-87
2024/02/21 02:45:29;;;;;;;26.53;12.43;;;8.00;99.90;;;;;;5016063;28;20188;-85
2024/02/21 02:47:59;;;;;;;23.95;12.85;;;8.00;99.90;;;;;;5028832;28;20195;-86
2024/02/21 02:50:25;;;;;;;27.73;12.35;;;8.00;99.90;;;;;;5023392;28;20222;-87
2024/02/21 02:52:52;;;;;;;25.03;12.93;;;8.00;99.90;;;;;;5034426;28;20186;-86
2024/02/21 02:55:18;;;;;;;23.38;11.68;;;8.00;99.90;;;;;;5035700;28;20194;-86
2024/02/21 02:57:44;;;;;;;28.10;12.33;;;8.00;99.90;;;;;;5020558;28;20198;-86
2024/02/21 03:00:14;;;;;;;24.40;12.60;;;8.00;99.90;;;;;;5016275;28;20191;-86
2024/02/21 03:02:41;;;;;;;24.98;12.57;;;8.00;99.90;;;;;;5024025;28;20203;-85
2024/02/21 03:05:15;;;;;;;22.88;11.52;;;8.00;99.90;;;;;;5030132;28;20194;-87
2024/02/21 03:07:41;;;;;;;28.95;13.07;;;8.00;99.90;;;;;;5023528;28;20247;-87
2024/02/21 03:10:08;;;;;;;23.83;12.00;;;8.00;99.90;;;;;;5015259;28;20187;-85
2024/02/21 03:12:33;;;;;;;24.23;11.90;;;8.00;99.90;;;;;;5023511;28;20520;-87
2024/02/21 03:14:59;;;;;;;28.93;12.53;;;8.00;99.90;;;;;;5026747;28;20187;-86
2024/02/21 03:17:27;;;;;;;25.43;12.43;;;8.00;99.90;;;;;;5025532;28;20266;-87
2024/02/21 03:19:52;;;;;;;23.10;11.87;;;8.00;99.90;;;;;;5025758;28;20197;-86
2024/02/21 03:22:18;;;;;;;25.15;11.77;;;8.00;99.90;;;;;;5014629;28;20594;-86
2024/02/21 03:24:44;;;;;;;23.87;11.87;;;8.00;99.90;;;;;;5032624;28;20285;-86
2024/02/21 03:27:10;;;;;;;25.48;12.10;;;8.00;99.90;;;;;;5034977;28;20202;-86
2024/02/21 03:29:42;;;;;;;23.27;11.53;;;8.00;99.90;;;;;;5033906;28;20676;-87
2024/02/21 03:32:08;;;;;;;27.63;12.00;;;8.00;99.90;;;;;;5028899;28;20253;-85
2024/02/21 03:34:34;;;;;;;23.17;11.90;;;8.00;99.90;;;;;;5022568;28;20632;-87
2024/02/21 03:37:00;;;;;;;24.70;12.47;;;8.00;99.90;;;;;;5025711;28;20224;-86
2024/02/21 03:39:26;;;;;;;24.13;11.70;;;8.00;99.90;;;;;;5035535;28;20186;-87
2024/02/21 03:41:51;;;;;;;23.17;12.03;;;8.00;99.90;;;;;;5030875;28;20633;-87
2024/02/21 03:44:17;;;;;;;24.20;12.17;;;8.00;99.90;;;;;;5022482;28;20266;-85
2024/02/21 03:46:43;;;;;;;27.37;12.53;;;8.10;99.90;;;;;;5017086;28;20574;-85
2024/02/21 03:49:09;;;;;;;25.63;12.85;;;8.10;99.90;;;;;;5015285;28;20179;-85
2024/02/21 03:51:35;;;;;;;30.07;13.17;;;8.10;99.90;;;;;;5030535;28;20197;-87
2024/02/21 03:54:01;;;;;;;28.50;12.90;;;8.10;99.90;;;;;;5034067;28;20284;-87
2024/02/21 03:56:27;;;;;;;31.60;13.43;;;8.10;99.90;;;;;;5020214;28;20265;-85
2024/02/21 03:58:53;;;;;;;25.07;13.03;;;8.20;99.90;;;;;;5023474;28;20282;-85
2024/02/21 04:01:19;;;;;;;26.17;13.13;;;8.10;99.90;;;;;;5020489;28;20637;-89
2024/02/21 04:03:44;;;;;;;24.20;12.77;;;8.10;99.90;;;;;;5016972;28;20241;-86
2024/02/21 04:06:10;;;;;;;32.78;14.02;;;8.20;99.90;;;;;;5021323;28;20514;-85
2024/02/21 04:08:36;;;;;;;22.63;12.63;;;8.10;99.90;;;;;;5026380;28;20217;-85
2024/02/21 04:11:02;;;;;;;22.77;12.50;;;8.10;99.90;;;;;;5021075;28;20550;-86
2024/02/21 04:13:28;;;;;;;30.17;13.17;;;8.10;99.90;;;;;;5014905;28;20195;-87
2024/02/21 04:15:53;;;;;;;24.88;12.98;;;8.20;99.90;;;;;;5021517;28;20179;-87
2024/02/21 04:18:19;;;;;;;29.92;13.32;;;8.10;99.90;;;;;;5024750;28;20183;-86
2024/02/21 04:20:45;;;;;;;22.52;12.27;;;8.20;99.90;;;;;;5023468;28;20288;-86
2024/02/21 04:23:11;;;;;;;22.50;13.53;;;8.10;99.90;;;;;;5033655;28;20613;-88
2024/02/21 04:25:37;;;;;;;25.07;12.67;;;8.20;99.90;;;;;;5032593;28;20190;-86
2024/02/21 04:28:03;;;;;;;24.57;13.33;;;8.20;99.90;;;;;;5023571;28;20519;-85
2024/02/21 04:30:28;;;;;;;23.57;12.17;;;8.20;99.90;;;;;;5020654;28;20337;-85
2024/02/21 04:32:55;;;;;;;23.37;13.37;;;8.20;99.90;;;;;;5026732;28;20277;-85
2024/02/21 04:35:21;;;;;;;24.67;11.97;;;8.20;99.90;;;;;;5026055;28;20622;-88
2024/02/21 04:37:47;;;;;;;22.67;12.27;;;8.10;99.90;;;;;;5021276;28;20233;-88
2024/02/21 04:40:14;;;;;;;24.63;12.10;;;8.20;99.90;;;;;;5013508;28;20658;-86
2024/02/21 04:42:40;;;;;;;28.87;12.87;;;8.20;99.90;;;;;;5030489;28;20273;-87
2024/02/21 04:45:06;;;;;;;26.67;12.47;;;8.20;99.90;;;;;;5033085;28;20701;-86
2024/02/21 04:47:32;;;;;;;27.37;13.27;;;8.20;99.90;;;;;;5030502;28;20618;-84
2024/02/21 04:49:57;;;;;;;23.97;12.80;;;8.20;99.90;;;;;;5013111;28;20191;-85
2024/02/21 04:52:23;;;;;;;21.97;12.10;;;8.20;99.90;;;;;;5013393;28;20245;-86
2024/02/21 04:54:49;;;;;;;21.83;12.35;;;8.20;99.90;;;;;;5031792;28;20194;-85
2024/02/21 04:57:16;;;;;;;20.38;11.75;;;8.20;99.90;;;;;;5024039;28;20207;-86
2024/02/21 04:59:45;;;;;;;23.77;12.43;;;8.20;99.90;;;;;;5032524;28;20201;-87
2024/02/21 05:02:11;;;;;;;22.83;11.83;;;8.20;99.90;;;;;;5021440;28;20187;-86
2024/02/21 05:04:38;;;;;;;22.87;12.33;;;8.20;99.90;;;;;;5021330;28;20671;-86
2024/02/21 05:07:05;;;;;;;24.53;11.80;;;8.20;99.90;;;;;;5016986;28;20209;-87
2024/02/21 05:09:30;;;;;;;24.53;11.63;;;8.20;99.90;;;;;;5032607;28;20199;-87
2024/02/21 05:11:58;;;;;;;24.07;12.10;;;8.20;99.90;;;;;;5032977;28;20195;-86
2024/02/21 05:14:24;;;;;;;21.07;12.10;;;8.20;99.90;;;;;;5033569;28;20178;-86
2024/02/21 05:16:50;;;;;;;24.80;12.13;;;8.20;99.90;;;;;;5021529;28;20202;-85
2024/02/21 05:19:16;;;;;;;22.40;12.00;;;8.20;99.90;;;;;;5016936;28;20191;-86
2024/02/21 05:21:42;;;;;;;24.97;12.13;;;8.20;99.90;;;;;;5022619;28;20217;-87
2024/02/21 05:24:08;;;;;;;25.75;12.48;;;8.20;99.90;;;;;;5020531;28;20215;-87
2024/02/21 05:26:34;;;;;;;27.27;13.30;;;8.20;99.90;;;;;;5018511;28;20577;-88
2024/02/21 05:29:00;;;;;;;23.67;12.15;;;8.20;99.90;;;;;;5024327;28;20226;-86
2024/02/21 05:31:25;;;;;;;27.38;13.48;;;8.20;99.90;;;;;;5018316;28;20225;-85
2024/02/21 05:33:51;;;;;;;21.60;12.73;;;8.20;99.90;;;;;;5033378;28;20550;-87
2024/02/21 05:36:17;;;;;;;23.47;12.03;;;8.20;99.90;;;;;;5020797;28;20305;-84
2024/02/21 05:38:43;;;;;;;24.25;12.48;;;8.20;99.90;;;;;;5024311;28;20199;-87
2024/02/21 05:41:08;;;;;;;25.67;11.93;;;8.30;99.90;;;;;;5032755;28;20509;-85
2024/02/21 05:43:34;;;;;;;20.70;12.13;;;8.20;99.90;;;;;;5036774;28;20214;-88
2024/02/21 05:46:00;;;;;;;21.03;12.07;;;8.20;99.90;;;;;;5019920;28;20233;-87
2024/02/21 05:48:26;;;;;;;27.33;12.53;;;8.20;99.90;;;;;;5028267;28;20195;-87
2024/02/21 05:50:51;;;;;;;28.07;12.53;;;8.20;99.90;;;;;;5016177;28;20270;-88
2024/02/21 05:53:17;;;;;;;21.80;12.17;;;8.20;99.90;;;;;;5017851;28;20525;-87
2024/02/21 05:55:43;;;;;;;23.63;12.67;;;8.20;99.90;;;;;;5023889;28;20209;-86
2024/02/21 05:58:13;;;;;;;29.33;12.90;;;8.30;99.90;;;;;;5022229;28;20182;-86
2024/02/21 06:00:39;;;;;;;25.73;13.47;;;8.30;99.90;;;;;;5024347;28;20198;-86
2024/02/21 06:03:04;;;;;;;23.87;12.00;;;8.20;99.90;;;;;;5027012;28;20215;-85
2024/02/21 06:05:38;;;;;;;30.42;13.95;;;8.30;99.90;;;;;;5026236;28;20183;-85
2024/02/21 06:08:11;;;;;;;24.88;12.63;;;8.20;99.90;;;;;;5035796;28;20187;-85
2024/02/21 06:10:37;;;;;;;23.58;12.95;;;8.30;99.90;;;;;;5034717;28;20225;-86
2024/02/21 06:13:03;;;;;;;23.97;13.10;;;8.30;99.90;;;;;;5031849;28;20551;-87
2024/02/21 06:15:29;;;;;;;26.60;13.90;;;8.20;99.90;;;;;;5023782;28;20595;-84
2024/02/21 06:17:54;;;;;;;22.07;12.83;;;8.20;99.90;;;;;;5026064;28;20186;-87
2024/02/21 06:20:20;;;;;;;22.57;13.00;;;8.30;99.90;;;;;;5035606;28;20194;-87
2024/02/21 06:22:46;;;;;;;28.80;12.63;;;8.30;99.90;;;;;;5035511;28;20545;-89
2024/02/21 06:25:11;;;;;;;26.75;12.27;;;8.30;99.90;;;;;;5029754;28;20237;-86
2024/02/21 06:27:37;;;;;;;24.55;11.90;;;8.30;99.90;;;;;;5022498;28;20612;-87
2024/02/21 06:30:03;;;;;;;18.73;12.02;;;8.20;99.90;;;;;;5019906;28;20630;-87
2024/02/21 06:32:29;;;;;;;21.70;12.30;;;8.20;99.90;;;;;;5029156;28;20182;-85
2024/02/21 06:34:56;;;;;;;24.00;13.00;;;8.20;99.90;;;;;;5026956;28;20191;-88
2024/02/21 06:37:22;;;;;;;20.03;11.70;;;8.30;99.90;;;;;;5026074;28;20186;-88
2024/02/21 06:39:48;;;;;;;24.07;11.83;;;8.20;99.90;;;;;;5025538;28;20199;-88
2024/02/21 06:42:13;;;;;;;25.35;12.30;;;8.20;99.90;;;;;;5022024;28;20513;-87
2024/02/21 06:44:40;;;;;;;18.93;12.47;;;8.20;99.90;;;;;;5035961;28;20217;-89
2024/02/21 06:47:07;;;;;;;23.38;12.65;;;8.20;99.90;;;;;;5038603;28;20178;-89
2024/02/21 06:49:33;;;;;;;26.43;13.33;;;8.20;99.90;;;;;;5035593;28;20286;-88
2024/02/21 06:51:59;;;;;;;19.97;12.10;;;8.20;99.90;;;;;;5019643;28;20281;-87
2024/02/21 06:54:26;;;;;;;22.07;12.80;;;8.20;99.90;;;;;;5034189;28;20205;-88
2024/02/21 06:56:52;;;;;;;20.53;12.30;;;8.20;99.90;;;;;;5024916;28;20183;-87
2024/02/21 06:59:18;;;;;;;23.90;13.07;;;8.20;99.90;;;;;;5017094;28;20191;-89
2024/02/21 07:01:53;;;;;;;20.13;12.47;;;8.20;99.90;;;;;;5023927;28;20178;-88
2024/02/21 07:04:19;;;;;;;21.63;12.18;;;8.20;99.90;;;;;;5030839;28;20218;-88
2024/02/21 07:06:46;;;;;;;20.70;12.70;;;8.20;99.90;;;;;;5018578;28;20517;-88
2024/02/21 07:09:11;;;;;;;23.50;13.13;;;8.20;99.90;;;;;;5046154;28;20186;-88
2024/02/21 07:11:37;;;;;;;20.80;12.33;;;8.20;99.90;;;;;;5027738;28;20270;-87
2024/02/21 07:14:03;;;;;;;21.98;11.82;;;8.20;99.90;;;;;;5026932;28;20199;-87
2024/02/21 07:16:29;;;;;;;26.00;13.13;;;8.20;99.90;;;;;;5018885;28;20186;-86
2024/02/21 07:18:55;;;;;;;23.30;12.77;;;8.30;99.90;;;;;;5033290;28;20240;-87
2024/02/21 07:21:21;;;;;;;22.85;12.20;;;8.30;99.90;;;;;;5035251;28;20194;-86
2024/02/21 07:23:47;;;;;;;18.13;11.87;;;8.30;99.90;;;;;;5016571;28;20700;-86
2024/02/21 07:26:18;;;;;;;22.63;12.10;;;8.30;99.90;;;;;;5030117;28;20187;-87
2024/02/21 07:28:43;;;;;;;23.00;12.07;;;8.30;99.90;;;;;;5029072;28;20279;-88
2024/02/21 07:31:09;;;;;;;20.63;11.93;;;8.30;99.90;;;;;;5015595;28;20287;-88
2024/02/21 07:33:35;;;;;;;20.50;11.50;;;8.30;99.90;;;;;;5032858;28;20206;-87
2024/02/21 07:36:11;;;;;;;22.70;11.13;;;8.30;99.90;;;;;;5028608;28;20640;-88
2024/02/21 07:38:37;;;;;;;21.80;12.43;;;8.40;99.90;;;;;;5016742;28;20183;-88
2024/02/21 07:41:04;;;;;;;23.40;11.67;;;8.40;99.90;;;;;;5024800;28;20532;-87
2024/02/21 07:43:30;;;;;;;19.57;10.77;;;8.40;99.90;;;;;;5031505;28;20222;-88
2024/02/21 07:45:58;;;;;;;19.33;11.02;;;8.40;99.90;;;;;;5024202;28;20187;-88
2024/02/21 07:48:28;;;;;;;18.40;10.37;;;8.40;99.90;;;;;;5031579;28;20257;-87
2024/02/21 07:50:54;;;;;;;18.63;11.27;;;8.50;99.90;;;;;;5042032;28;20277;-88
2024/02/21 07:53:21;;;;;;;19.07;11.63;;;8.40;99.90;;;;;;5028079;28;20282;-88
2024/02/21 07:55:48;;;;;;;21.08;11.18;;;8.50;99.90;;;;;;5017347;28;20182;-88
2024/02/21 07:58:14;;;;;;;17.40;11.07;;;8.40;99.90;;;;;;5022689;28;20240;-88
2024/02/21 08:00:40;;;;;;;27.65;11.40;;;8.40;99.90;;;;;;5026400;28;20190;-88
2024/02/21 08:03:05;;;;;;;20.55;11.30;;;8.40;99.90;;;;;;5034110;28;20214;-87
2024/02/21 08:05:35;;;;;;;22.92;11.57;;;8.40;99.90;;;;;;5026571;28;20186;-87
2024/02/21 08:08:00;;;;;;;18.17;11.07;;;8.40;99.90;;;;;;5034494;28;20213;-88
2024/02/21 08:10:26;;;;;;;20.73;11.25;;;8.40;99.90;;;;;;5027586;28;20265;-87
2024/02/21 08:12:52;;;;;;;16.63;10.18;;;8.40;99.90;;;;;;5032913;28;20198;-87
2024/02/21 08:15:18;;;;;;;18.48;10.27;;;8.40;99.90;;;;;;5029244;28;20186;-86
2024/02/21 08:17:43;;;;;;;20.33;10.63;;;8.40;99.90;;;;;;5035283;28;20194;-87
2024/02/21 08:20:10;;;;;;;19.85;10.80;;;8.50;99.90;;;;;;5033189;28;20194;-87
2024/02/21 08:22:38;;;;;;;22.52;10.77;;;8.50;99.90;;;;;;5023270;28;20205;-88
2024/02/21 08:25:05;;;;;;;21.00;10.33;;;8.50;99.90;;;;;;5021819;28;20252;-88
2024/02/21 08:27:31;;;;;;;19.08;9.98;;;8.50;99.90;;;;;;5026794;28;20186;-87
2024/02/21 08:29:56;;;;;;;18.85;10.07;;;8.50;99.90;;;;;;5029006;28;20321;-88
2024/02/21 08:32:22;;;;;;;16.77;9.25;;;8.50;99.90;;;;;;5013829;28;20446;-87
2024/02/21 08:34:48;;;;;;;13.45;9.85;;;8.60;99.90;;;;;;5028973;28;20567;-89
2024/02/21 08:37:16;;;;;;;18.33;9.85;;;8.60;99.90;;;;;;5015360;28;20190;-86
2024/02/21 08:39:41;;;;;;;18.98;10.35;;;8.60;99.90;;;;;;5023897;28;20184;-87
2024/02/21 08:42:07;;;;;;;16.05;10.00;;;8.60;99.90;;;;;;5033135;28;20186;-87
2024/02/21 08:44:33;;;;;;;17.50;9.73;;;8.60;99.90;;;;;;5024824;28;20245;-88
2024/02/21 08:47:03;;;;;;;15.25;9.13;;;8.60;99.90;;;;;;5033992;28;20179;-88
2024/02/21 08:49:29;;;;;;;17.20;9.25;;;8.70;99.90;;;;;;5022611;28;20182;-89
2024/02/21 08:51:55;;;;;;;16.65;9.73;;;8.70;99.90;;;;;;5022483;28;20632;-88
2024/02/21 08:54:20;;;;;;;19.10;9.98;;;8.70;99.90;;;;;;5028080;28;20179;-87
2024/02/21 08:56:52;;;;;;;17.58;9.45;;;8.80;99.90;;;;;;5017586;28;20250;-88
2024/02/21 08:59:18;;;;;;;16.92;9.02;;;8.80;99.90;;;;;;5025333;28;20205;-88
2024/02/21 09:01:44;;;;;;;16.60;9.48;;;8.80;99.90;;;;;;5029672;28;20609;-89
2024/02/21 09:04:10;;;;;;;18.77;9.80;;;8.80;99.90;;;;;;5028511;28;20207;-88
2024/02/21 09:06:39;;;;;;;17.85;9.40;;;8.80;99.90;;;;;;5032590;28;20185;-86
2024/02/21 09:09:04;;;;;;;17.98;8.77;;;8.70;99.90;;;;;;5029183;28;20622;-86
2024/02/21 09:11:30;;;;;;;19.23;9.48;;;8.70;99.90;;;;;;5033035;28;20198;-87
2024/02/21 09:13:56;;;;;;;19.70;8.93;;;8.70;99.90;;;;;;5031348;28;20613;-85
2024/02/21 09:16:23;;;;;;;13.07;8.10;;;8.80;99.90;;;;;;5035390;28;20179;-85
2024/02/21 09:18:48;;;;;;;14.45;8.27;;;8.70;99.90;;;;;;5037425;28;20186;-88
2024/02/21 09:21:14;;;;;;;14.40;7.68;;;8.80;99.90;;;;;;5037430;28;20194;-86
2024/02/21 09:23:40;;;;;;;16.70;8.38;;;8.80;99.90;;;;;;5030480;28;20217;-88
2024/02/21 09:26:05;;;;;;;18.92;8.73;;;8.80;99.90;;;;;;5038146;28;20182;-87
2024/02/21 09:28:34;;;;;;;17.00;8.75;;;8.80;99.90;;;;;;5029219;28;20183;-86
2024/02/21 09:31:00;;;;;;;15.23;8.13;;;8.80;99.90;;;;;;5029370;28;20230;-87
2024/02/21 09:33:25;;;;;;;22.02;9.75;;;8.80;99.90;;;;;;5030144;28;20207;-86
2024/02/21 09:35:51;;;;;;;15.40;8.32;;;8.80;99.90;;;;;;5028116;28;20191;-88
2024/02/21 09:38:19;;;;;;;18.05;8.90;;;8.80;99.90;;;;;;5030245;28;21708;-87
2024/02/21 09:40:44;;;;;;;17.48;8.43;;;8.80;99.90;;;;;;5047480;28;20608;-87
2024/02/21 09:43:10;;;;;;;14.27;8.07;;;8.90;99.90;;;;;;5023114;28;20207;-88
2024/02/21 09:45:38;;;;;;;17.27;7.75;;;8.90;99.90;;;;;;5017965;28;20214;-86
2024/02/21 09:48:13;;;;;;;17.85;7.47;;;8.90;99.90;;;;;;5039017;28;20265;-85
2024/02/21 09:50:43;;;;;;;14.18;8.02;;;9.00;99.90;;;;;;5033768;28;20231;-89
2024/02/21 09:53:12;;;;;;;27.52;7.75;;;9.10;99.90;;;;;;5036542;28;20225;-86
2024/02/21 09:55:41;;;;;;;12.60;6.63;;;9.20;99.90;;;;;;5039644;28;20190;-87
2024/02/21 09:58:14;;;;;;;18.00;6.85;;;9.30;99.90;;;;;;5036888;28;20194;-87
2024/02/21 10:00:40;;;;;;;11.48;6.07;;;9.50;99.90;;;;;;5021725;28;20179;-87
2024/02/21 10:03:08;;;;;;;11.57;6.22;;;9.50;99.90;;;;;;5029837;28;20218;-87
2024/02/21 10:05:38;;;;;;;15.77;5.97;;;9.60;99.90;;;;;;5036117;28;20621;-89
2024/02/21 10:08:06;;;;;;;13.68;5.97;;;9.70;99.90;;;;;;5024904;28;20191;-89
2024/02/21 10:10:43;;;;;;;11.68;5.60;;;9.80;99.90;;;;;;5026099;28;20183;-87
2024/02/21 10:13:10;;;;;;;10.88;5.75;;;9.90;99.90;;;;;;5031228;28;20189;-87
2024/02/21 10:15:36;;;;;;;12.00;5.45;;;9.90;99.90;;;;;;5026849;28;20610;-87
2024/02/21 10:18:07;;;;;;;14.20;5.47;;;10.00;99.90;;;;;;5029659;28;20261;-88
2024/02/21 10:20:34;;;;;;;10.38;4.75;;;10.10;99.90;;;;;;5035494;28;20567;-87
2024/02/21 10:23:13;;;;;;;11.75;5.03;;;10.10;99.90;;;;;;5028001;28;20214;-88
2024/02/21 10:25:41;;;;;;;7.30;4.30;;;10.20;99.90;;;;;;5019181;28;20214;-87
2024/02/21 10:28:16;;;;;;;9.73;4.20;;;10.10;99.90;;;;;;5028704;28;20179;-87
2024/02/21 10:30:52;;;;;;;11.95;4.82;;;10.10;99.90;;;;;;5026975;28;20237;-90
2024/02/21 10:33:20;;;;;;;11.38;4.25;;;10.10;99.90;;;;;;5025100;28;20222;-88
2024/02/21 10:35:46;;;;;;;6.97;3.75;;;10.10;99.90;;;;;;5028221;28;20175;-86
2024/02/21 10:38:12;;;;;;;10.10;4.22;;;10.10;99.90;;;;;;5030880;28;20192;-89
2024/02/21 10:40:38;;;;;;;8.20;4.15;;;10.00;99.90;;;;;;5033311;28;20190;-87
2024/02/21 10:43:11;;;;;;;10.55;4.15;;;10.00;99.90;;;;;;5034304;28;20217;-87
2024/02/21 10:45:38;;;;;;;7.47;3.85;;;9.90;99.90;;;;;;5034048;28;21797;-86
2024/02/21 10:48:25;;;;;;;12.95;4.53;;;10.00;99.90;;;;;;5040488;28;20593;-87
2024/02/21 10:51:12;;;;;;;12.15;3.90;;;10.00;99.90;;;;;;5025736;28;20240;-86
2024/02/21 10:53:57;;;;;;;10.90;3.97;;;10.00;99.90;;;;;;5025484;28;20241;-87
2024/02/21 10:56:30;;;;;;;9.82;3.72;;;10.00;99.90;;;;;;5032482;28;20641;-86
2024/02/21 10:59:00;;;;;;;9.40;3.80;;;10.00;99.90;;;;;;5032751;28;20183;-88
2024/02/21 11:01:31;;;;;;;9.13;3.35;;;10.10;99.90;;;;;;5032540;28;20286;-85
2024/02/21 11:04:01;;;;;;;8.23;3.67;;;10.10;99.90;;;;;;5035644;28;20218;-88
2024/02/21 11:06:28;;;;;;;9.02;3.45;;;10.10;99.90;;;;;;5036121;28;20567;-86
2024/02/21 11:09:11;;;;;;;11.75;3.78;;;10.20;99.90;;;;;;5028370;28;20187;-87
2024/02/21 11:11:43;;;;;;;6.65;3.15;;;10.20;99.90;;;;;;5038747;28;20182;-87
2024/02/21 11:14:10;;;;;;;6.03;3.20;;;10.20;99.90;;;;;;5036415;28;20258;-86
2024/02/21 11:16:40;;;;;;;7.30;2.60;;;10.20;99.90;;;;;;5035339;28;20186;-86
2024/02/21 11:19:18;;;;;;;8.32;3.17;;;10.30;99.90;;;;;;5031937;28;20183;-86
2024/02/21 11:21:44;;;;;;;6.70;2.67;;;10.30;99.90;;;;;;5016517;28;20629;-87
2024/02/21 11:24:10;;;;;;;11.45;3.63;;;10.20;99.90;;;;;;5030040;28;20210;-86
2024/02/21 11:26:38;;;;;;;8.50;3.35;;;10.20;99.90;;;;;;5017808;28;20194;-85
2024/02/21 11:29:04;;;;;;;5.43;2.83;;;10.20;99.90;;;;;;5016403;28;20231;-85
2024/02/21 11:31:41;;;;;;;5.65;2.58;;;10.30;99.90;;;;;;5015437;28;20194;-87
2024/02/21 11:34:13;;;;;;;5.20;2.45;;;10.30;99.90;;;;;;5027822;28;20575;-87
2024/02/21 11:36:49;;;;;;;5.57;2.50;;;10.30;99.90;;;;;;5035197;28;20194;-85
2024/02/21 11:39:21;;;;;;;9.77;2.83;;;10.30;99.90;;;;;;5030454;28;20183;-86
2024/02/21 11:41:58;;;;;;;7.82;2.88;;;10.40;99.90;;;;;;5017088;28;20187;-85
2024/02/21 11:44:24;;;;;;;8.73;2.97;;;10.40;99.90;;;;;;5027791;28;20218;-86
2024/02/21 11:46:50;;;;;;;8.93;2.72;;;10.50;99.90;;;;;;5015124;28;20270;-86
2024/02/21 11:49:16;;;;;;;11.10;3.13;;;10.40;99.90;;;;;;5014959;28;20214;-87
2024/02/21 11:51:41;;;;;;;5.82;2.40;;;10.40;99.90;;;;;;5014984;28;20198;-87
2024/02/21 11:54:07;;;;;;;7.15;2.58;;;10.40;99.90;;;;;;5016126;28;20183;-88
2024/02/21 11:56:35;;;;;;;8.23;3.20;;;10.40;99.90;;;;;;5032238;28;20240;-86
2024/02/21 11:59:11;;;;;;;6.82;2.85;;;10.40;99.90;;;;;;5031026;28;20224;-87
2024/02/21 12:01:37;;;;;;;12.63;3.05;;;10.30;99.90;;;;;;5024528;28;20186;-87
2024/02/21 12:04:03;;;;;;;6.25;2.85;;;10.30;99.90;;;;;;5035500;28;20210;-87
2024/02/21 12:06:29;;;;;;;7.30;2.67;;;10.20;99.90;;;;;;5018626;28;20190;-87
2024/02/21 12:08:58;;;;;;;8.00;2.45;;;10.30;99.90;;;;;;5017995;28;20190;-87
2024/02/21 12:11:24;;;;;;;7.43;2.78;;;10.40;99.90;;;;;;5035665;28;20493;-85
2024/02/21 12:14:01;;;;;;;7.45;2.38;;;10.40;99.90;;;;;;5033159;28;20182;-87
2024/02/21 12:16:29;;;;;;;6.13;2.42;;;10.40;99.90;;;;;;5014846;28;20191;-88
2024/02/21 12:18:57;;;;;;;7.70;2.40;;;10.40;99.90;;;;;;5015710;28;20669;-87
2024/02/21 12:21:28;;;;;;;12.38;2.88;;;10.30;99.90;;;;;;5030449;28;20179;-87
2024/02/21 12:23:57;;;;;;;7.18;2.58;;;10.20;99.90;;;;;;5032179;28;20238;-86
2024/02/21 12:26:23;;;;;;;5.82;2.53;;;10.20;99.90;;;;;;5023808;28;20258;-87
2024/02/21 12:28:48;;;;;;;8.40;2.40;;;10.30;99.90;;;;;;5033356;28;20186;-88
2024/02/21 12:31:16;;;;;;;6.40;2.72;;;10.30;99.90;;;;;;5033953;28;20201;-86
2024/02/21 12:33:43;;;;;;;5.65;2.47;;;10.30;99.90;;;;;;5035295;28;20488;-86
2024/02/21 12:36:09;;;;;;;6.50;2.80;;;10.40;99.90;;;;;;5034112;28;20186;-87
2024/02/21 12:38:37;;;;;;;7.57;2.60;;;10.40;99.90;;;;;;5033684;28;20232;-86
2024/02/21 12:41:03;;;;;;;6.88;2.80;;;10.50;99.90;;;;;;5021817;28;20191;-86